createdAt,value
2022-11-23T00:02:12.352Z,6.64
2022-11-23T00:04:42.852Z,6.64
2022-11-23T00:07:13.647Z,6.65
2022-11-23T00:09:44.082Z,6.67
2022-11-23T00:12:14.516Z,6.68
2022-11-23T00:14:45.010Z,6.68
2022-11-23T00:17:15.492Z,6.68
2022-11-23T00:19:45.915Z,6.68
2022-11-23T00:22:16.445Z,6.70
2022-11-23T00:24:46.903Z,6.70
2022-11-23T00:27:17.451Z,6.68
2022-11-23T00:29:47.880Z,6.65
2022-11-23T00:32:20.914Z,6.60
2022-11-23T00:34:53.913Z,6.57
2022-11-23T00:37:24.465Z,6.55
2022-11-23T00:39:54.872Z,6.51
2022-11-23T00:42:25.371Z,6.48
2022-11-23T00:44:55.772Z,6.46
2022-11-23T00:47:26.381Z,6.45
2022-11-23T00:49:56.866Z,6.45
2022-11-23T00:52:27.295Z,6.45
2022-11-23T00:54:57.648Z,6.47
2022-11-23T00:57:28.067Z,6.48
2022-11-23T00:59:58.490Z,6.49
2022-11-23T01:02:29.013Z,6.50
2022-11-23T01:04:59.397Z,6.51
2022-11-23T01:07:33.545Z,6.53
2022-11-23T01:10:04.573Z,6.53
2022-11-23T01:12:36.752Z,6.57
2022-11-23T01:15:08.258Z,6.56
2022-11-23T01:17:38.788Z,6.56
2022-11-23T01:20:15.041Z,6.56
2022-11-23T01:22:45.687Z,6.55
2022-11-23T01:25:16.166Z,6.55
2022-11-23T01:27:46.733Z,6.56
2022-11-23T01:30:18.223Z,6.56
2022-11-23T01:32:48.585Z,6.55
2022-11-23T01:35:19.283Z,6.55
2022-11-23T01:37:50.012Z,6.55
2022-11-23T01:40:20.596Z,6.55
2022-11-23T01:42:56.617Z,6.55
2022-11-23T01:45:56.792Z,6.56
2022-11-23T01:48:29.924Z,6.57
2022-11-23T01:51:03.557Z,6.58
2022-11-23T01:53:34.438Z,6.60
2022-11-23T01:56:08.654Z,6.61
2022-11-23T01:58:44.011Z,6.62
2022-11-23T02:01:15.150Z,6.63
2022-11-23T02:03:48.611Z,6.63
2022-11-23T02:06:21.044Z,6.64
2022-11-23T02:08:53.518Z,6.64
2022-11-23T02:11:24.047Z,6.64
2022-11-23T02:13:56.949Z,6.64
2022-11-23T02:16:27.520Z,6.64
2022-11-23T02:18:58.113Z,6.64
2022-11-23T02:21:29.031Z,6.64
2022-11-23T02:24:04.970Z,6.64
2022-11-23T02:26:37.144Z,6.64
2022-11-23T02:29:13.022Z,6.64
2022-11-23T02:31:43.687Z,6.64
2022-11-23T02:34:14.253Z,6.64
2022-11-23T02:36:47.599Z,6.63
2022-11-23T02:39:20.860Z,6.63
2022-11-23T02:41:53.251Z,6.63
2022-11-23T02:44:33.249Z,6.63
2022-11-23T02:47:03.915Z,6.62
2022-11-23T02:49:36.015Z,6.62
2022-11-23T02:52:07.277Z,6.61
2022-11-23T02:54:38.222Z,6.61
2022-11-23T02:57:09.717Z,6.62
2022-11-23T02:59:42.625Z,6.63
2022-11-23T03:02:13.240Z,6.62
2022-11-23T03:04:43.968Z,6.63
2022-11-23T03:07:14.469Z,6.64
2022-11-23T03:09:45.067Z,6.64
2022-11-23T03:12:16.420Z,6.65
2022-11-23T03:14:46.925Z,6.64
2022-11-23T03:17:17.383Z,6.64
2022-11-23T03:19:48.268Z,6.65
2022-11-23T03:22:18.851Z,6.66
2022-11-23T03:24:50.672Z,6.66
2022-11-23T03:27:21.164Z,6.67
2022-11-23T03:29:51.861Z,6.67
2022-11-23T03:32:23.629Z,6.66
2022-11-23T03:34:56.265Z,6.66
2022-11-23T03:37:27.002Z,6.67
2022-11-23T03:39:57.731Z,6.68
2022-11-23T03:43:03.345Z,6.70
2022-11-23T03:45:33.959Z,6.71
2022-11-23T03:48:04.531Z,6.72
2022-11-23T03:50:35.654Z,6.73
2022-11-23T03:53:07.206Z,6.73
2022-11-23T03:55:36.650Z,6.73
2022-11-23T03:58:07.704Z,6.74
2022-11-23T04:00:39.321Z,6.74
2022-11-23T04:03:10.598Z,6.73
2022-11-23T04:06:00.232Z,6.73
2022-11-23T04:08:56.201Z,6.73
2022-11-23T04:11:55.890Z,6.73
2022-11-23T04:14:26.430Z,6.73
2022-11-23T04:16:57.574Z,6.75
2022-11-23T04:19:28.109Z,6.75
2022-11-23T04:21:59.196Z,6.76
2022-11-23T04:24:31.302Z,6.76
2022-11-23T04:27:02.539Z,6.76
2022-11-23T04:29:33.320Z,6.76
2022-11-23T04:32:04.012Z,6.75
2022-11-23T04:34:35.043Z,6.76
2022-11-23T04:37:11.673Z,6.77
2022-11-23T04:39:44.102Z,6.77
2022-11-23T04:42:40.428Z,6.76
2022-11-23T04:45:12.397Z,6.76
2022-11-23T04:47:43.035Z,6.76
2022-11-23T04:50:16.628Z,6.75
2022-11-23T04:52:49.749Z,6.74
2022-11-23T04:55:22.890Z,6.74
2022-11-23T04:57:59.108Z,6.74
2022-11-23T05:00:31.041Z,6.74
2022-11-23T05:03:03.326Z,6.73
2022-11-23T05:05:41.280Z,6.74
2022-11-23T05:08:12.082Z,6.74
2022-11-23T05:11:02.813Z,6.74
2022-11-23T05:13:33.353Z,6.74
2022-11-23T05:16:04.824Z,6.73
2022-11-23T05:18:35.912Z,6.73
2022-11-23T05:21:06.609Z,6.74
2022-11-23T05:23:37.456Z,6.74
2022-11-23T05:26:08.392Z,6.74
2022-11-23T05:28:40.663Z,6.73
2022-11-23T05:31:12.880Z,6.73
2022-11-23T05:33:43.831Z,6.73
2022-11-23T05:36:14.345Z,6.73
2022-11-23T05:38:45.630Z,6.73
2022-11-23T05:41:19.935Z,6.71
2022-11-23T05:43:49.658Z,6.70
2022-11-23T05:46:23.196Z,6.70
2022-11-23T05:48:53.943Z,6.69
2022-11-23T05:51:24.747Z,6.69
2022-11-23T05:53:54.428Z,6.69
2022-11-23T05:56:42.205Z,6.69
2022-11-23T05:59:17.701Z,6.68
2022-11-23T06:01:52.219Z,6.68
2022-11-23T06:04:29.448Z,6.70
2022-11-23T06:07:01.162Z,6.71
2022-11-23T06:09:36.390Z,6.72
2022-11-23T06:12:10.467Z,6.72
2022-11-23T06:14:41.146Z,6.75
2022-11-23T06:17:11.912Z,6.77
2022-11-23T06:19:46.817Z,6.78
2022-11-23T06:22:17.345Z,6.80
2022-11-23T06:24:54.876Z,6.81
2022-11-23T06:27:37.647Z,6.83
2022-11-23T06:30:15.930Z,6.85
2022-11-23T06:32:46.678Z,6.87
2022-11-23T06:35:18.003Z,6.90
2022-11-23T06:37:50.531Z,6.91
2022-11-23T06:40:21.458Z,6.91
2022-11-23T06:42:58.880Z,6.93
2022-11-23T06:45:35.117Z,6.94
2022-11-23T06:48:09.342Z,6.95
2022-11-23T06:50:44.332Z,6.95
2022-11-23T06:53:15.111Z,6.97
2022-11-23T06:56:00.939Z,6.98
2022-11-23T06:58:32.227Z,6.97
2022-11-23T07:01:05.626Z,6.97
2022-11-23T07:03:41.048Z,6.97
2022-11-23T07:06:26.300Z,6.95
2022-11-23T07:08:58.902Z,6.94
2022-11-23T07:11:41.657Z,6.92
2022-11-23T07:14:13.838Z,6.91
2022-11-23T07:16:45.918Z,6.90
2022-11-23T07:19:17.980Z,6.87
2022-11-23T07:21:48.827Z,6.85
2022-11-23T07:24:19.877Z,6.84
2022-11-23T07:26:51.134Z,6.84
2022-11-23T07:29:21.719Z,6.84
2022-11-23T07:31:52.877Z,6.84
2022-11-23T07:34:25.489Z,6.83
2022-11-23T07:37:01.846Z,6.82
2022-11-23T07:39:56.392Z,6.80
2022-11-23T07:42:33.616Z,6.77
2022-11-23T07:45:06.087Z,6.73
2022-11-23T07:47:36.694Z,6.69
2022-11-23T07:50:09.760Z,6.65
2022-11-23T07:52:41.205Z,6.63
2022-11-23T07:55:10.958Z,6.60
2022-11-23T07:57:41.521Z,6.58
2022-11-23T08:00:13.871Z,6.52
2022-11-23T08:03:04.101Z,6.49
2022-11-23T08:05:36.276Z,6.45
2022-11-23T08:08:09.906Z,6.44
2022-11-23T08:10:45.287Z,6.44
2022-11-23T08:13:17.973Z,6.43
2022-11-23T08:15:54.341Z,6.40
2022-11-23T08:18:25.985Z,6.39
2022-11-23T08:21:01.902Z,6.39
2022-11-23T08:23:32.792Z,6.39
2022-11-23T08:26:12.047Z,6.40
2022-11-23T08:28:44.739Z,6.41
2022-11-23T08:31:15.627Z,6.41
2022-11-23T08:33:46.840Z,6.42
2022-11-23T08:36:19.026Z,6.43
2022-11-23T08:38:51.522Z,6.45
2022-11-23T08:41:25.614Z,6.47
2022-11-23T08:43:56.329Z,6.50
2022-11-23T08:46:26.818Z,6.53
2022-11-23T08:48:58.552Z,6.56
2022-11-23T08:51:29.621Z,6.59
2022-11-23T08:54:00.421Z,6.63
2022-11-23T08:56:32.178Z,6.65
2022-11-23T08:59:03.233Z,6.69
2022-11-23T09:01:33.999Z,6.73
2022-11-23T09:04:06.181Z,6.76
2022-11-23T09:06:37.191Z,6.80
2022-11-23T09:09:11.017Z,6.85
2022-11-23T09:11:41.985Z,6.92
2022-11-23T09:14:12.793Z,7.00
2022-11-23T09:16:43.431Z,7.06
2022-11-23T09:19:15.739Z,7.12
2022-11-23T09:21:46.455Z,7.20
2022-11-23T09:24:17.215Z,7.27
2022-11-23T09:26:47.991Z,7.35
2022-11-23T09:29:19.035Z,7.44
2022-11-23T09:31:49.658Z,7.50
2022-11-23T09:34:20.579Z,7.57
2022-11-23T09:36:51.604Z,7.66
2022-11-23T09:39:22.666Z,7.73
2022-11-23T09:42:20.915Z,7.79
2022-11-23T09:45:06.894Z,7.88
2022-11-23T09:47:49.972Z,7.96
2022-11-23T09:50:28.702Z,8.02
2022-11-23T09:53:05.503Z,8.05
2022-11-23T09:55:42.335Z,8.10
2022-11-23T09:58:17.443Z,8.17
2022-11-23T10:00:52.987Z,8.23
2022-11-23T10:03:24.735Z,8.29
2022-11-23T10:06:08.296Z,8.35
2022-11-23T10:08:49.345Z,8.42
2022-11-23T10:11:49.035Z,8.45
2022-11-23T10:14:38.960Z,8.50
2022-11-23T10:17:18.592Z,8.53
2022-11-23T10:20:03.019Z,8.55
2022-11-23T10:22:41.245Z,8.56
2022-11-23T10:25:17.585Z,8.58
2022-11-23T10:27:50.390Z,8.59
2022-11-23T10:30:22.334Z,8.62
2022-11-23T10:32:59.548Z,8.63
2022-11-23T10:35:33.819Z,8.65
2022-11-23T10:38:19.080Z,8.64
2022-11-23T10:41:01.767Z,8.66
2022-11-23T10:43:38.425Z,8.66
2022-11-23T10:46:31.005Z,8.65
2022-11-23T10:49:20.834Z,8.67
2022-11-23T10:52:03.885Z,8.69
2022-11-23T10:54:36.510Z,8.71
2022-11-23T10:57:24.038Z,8.70
2022-11-23T11:00:02.851Z,8.71
2022-11-23T11:02:41.276Z,8.71
2022-11-23T11:05:46.417Z,8.74
2022-11-23T11:08:17.973Z,8.77
2022-11-23T11:10:50.601Z,8.78
2022-11-23T11:13:28.106Z,8.79
2022-11-23T11:15:59.850Z,8.79
2022-11-23T11:18:34.008Z,8.81
2022-11-23T11:21:08.548Z,8.82
2022-11-23T11:23:42.326Z,8.83
2022-11-23T11:26:23.539Z,8.83
2022-11-23T11:28:55.418Z,8.83
2022-11-23T11:31:38.395Z,8.84
2022-11-23T11:34:17.341Z,8.87
2022-11-23T11:37:04.844Z,8.90
2022-11-23T11:39:42.819Z,8.93
2022-11-23T11:42:20.543Z,8.97
2022-11-23T11:44:56.357Z,9.01
2022-11-23T11:47:32.956Z,9.03
2022-11-23T11:50:16.603Z,9.06
2022-11-23T11:52:50.452Z,9.07
2022-11-23T11:55:25.571Z,9.10
2022-11-23T11:58:03.608Z,9.15
2022-11-23T12:00:45.853Z,9.20
2022-11-23T12:03:26.075Z,9.27
2022-11-23T12:06:01.226Z,9.36
2022-11-23T12:08:42.053Z,9.46
2022-11-23T12:11:14.483Z,9.56
2022-11-23T12:13:47.841Z,9.67
2022-11-23T12:16:28.049Z,9.78
2022-11-23T12:19:16.274Z,9.95
2022-11-23T12:22:25.365Z,10.27
2022-11-23T12:25:11.658Z,10.74
2022-11-23T12:27:56.862Z,11.14
2022-11-23T12:30:32.225Z,11.48
2022-11-23T12:33:17.067Z,11.82
2022-11-23T12:36:01.010Z,12.17
2022-11-23T12:38:42.002Z,12.48
2022-11-23T12:41:26.093Z,12.70
2022-11-23T12:44:39.483Z,12.86
2022-11-23T12:47:19.914Z,13.18
2022-11-23T12:49:54.891Z,13.37
2022-11-23T12:52:42.855Z,13.49
2022-11-23T12:55:25.051Z,13.56
2022-11-23T12:58:05.480Z,13.39
2022-11-23T13:00:40.766Z,13.20
2022-11-23T13:03:46.804Z,13.22
2022-11-23T13:07:12.648Z,13.21
2022-11-23T13:09:50.881Z,13.38
2022-11-23T13:12:49.458Z,13.35
2022-11-23T13:15:37.303Z,13.61
2022-11-23T13:18:17.040Z,13.68
2022-11-23T13:21:09.938Z,13.60
2022-11-23T13:23:41.359Z,13.75
2022-11-23T13:26:23.104Z,13.87
2022-11-23T13:28:56.785Z,13.88
2022-11-23T13:31:31.142Z,14.01
2022-11-23T13:34:03.693Z,13.99
2022-11-23T13:37:17.346Z,14.04
2022-11-23T13:40:03.799Z,14.13
2022-11-23T13:42:36.666Z,13.97
2022-11-23T13:45:26.944Z,13.99
2022-11-23T13:48:34.115Z,14.08
2022-11-23T13:51:05.419Z,14.37
2022-11-23T13:53:35.444Z,14.63
2022-11-23T13:56:24.011Z,14.82
2022-11-23T13:58:55.969Z,14.86
2022-11-23T14:02:01.066Z,14.84
2022-11-23T14:04:33.022Z,14.96
2022-11-23T14:07:07.193Z,14.82
2022-11-23T14:09:45.365Z,14.65
2022-11-23T14:12:28.882Z,14.38
2022-11-23T14:15:09.366Z,14.17
2022-11-23T14:18:16.082Z,13.83
2022-11-23T14:20:57.872Z,13.41
2022-11-23T14:23:46.723Z,13.14
2022-11-23T14:26:34.676Z,12.77
2022-11-23T14:29:36.370Z,12.36
2022-11-23T14:32:25.186Z,11.97
2022-11-23T14:35:13.428Z,11.64
2022-11-23T14:37:54.085Z,11.31
2022-11-23T14:40:29.262Z,11.01
2022-11-23T14:43:01.632Z,10.72
2022-11-23T14:45:34.118Z,10.48
2022-11-23T14:48:27.473Z,10.25
2022-11-23T14:51:01.068Z,10.01
2022-11-23T14:53:34.196Z,9.81
2022-11-23T14:56:04.848Z,9.65
2022-11-23T14:58:37.816Z,9.48
2022-11-23T15:01:15.112Z,9.29
2022-11-23T15:03:56.284Z,9.12
2022-11-23T15:06:31.603Z,9.02
2022-11-23T15:09:10.359Z,8.89
2022-11-23T15:11:41.094Z,8.75
2022-11-23T15:14:21.729Z,8.59
2022-11-23T15:16:52.627Z,8.40
2022-11-23T15:19:53.749Z,8.21
2022-11-23T15:22:25.502Z,8.00
2022-11-23T15:25:06.450Z,7.81
2022-11-23T15:27:42.219Z,7.74
2022-11-23T15:30:22.906Z,7.70
2022-11-23T15:33:02.201Z,7.61
2022-11-23T15:35:36.992Z,7.54
2022-11-23T15:38:12.942Z,7.43
2022-11-23T15:40:46.327Z,7.32
2022-11-23T15:43:18.218Z,7.25
2022-11-23T15:46:15.019Z,7.19
2022-11-23T15:48:49.219Z,7.12
2022-11-23T15:51:28.936Z,7.09
2022-11-23T15:54:01.873Z,7.05
2022-11-23T15:56:35.271Z,7.05
2022-11-23T15:59:17.146Z,7.12
2022-11-23T16:01:47.713Z,7.20
2022-11-23T16:04:28.552Z,7.24
2022-11-23T16:06:59.319Z,7.29
2022-11-23T16:09:52.156Z,7.33
2022-11-23T16:12:26.831Z,7.40
2022-11-23T16:14:58.951Z,7.45
2022-11-23T16:17:31.282Z,7.53
2022-11-23T16:20:05.755Z,7.60
2022-11-23T16:22:39.343Z,7.68
2022-11-23T16:25:27.796Z,7.78
2022-11-23T16:28:01.724Z,7.91
2022-11-23T16:30:39.355Z,7.97
2022-11-23T16:33:16.859Z,8.04
2022-11-23T16:35:47.606Z,8.09
2022-11-23T16:38:18.528Z,8.14
2022-11-23T16:40:49.798Z,8.20
2022-11-23T16:43:20.714Z,8.26
2022-11-23T16:45:52.464Z,8.32
2022-11-23T16:48:42.066Z,8.38
2022-11-23T16:51:15.117Z,8.41
2022-11-23T16:54:12.626Z,8.43
2022-11-23T16:56:38.014Z,8.45
2022-11-23T16:59:10.160Z,8.48
2022-11-23T17:01:43.671Z,8.50
2022-11-23T17:04:17.240Z,8.51
2022-11-23T17:06:48.287Z,8.51
2022-11-23T17:09:18.907Z,8.55
2022-11-23T17:11:51.194Z,8.56
2022-11-23T17:14:28.051Z,8.57
2022-11-23T17:17:00.250Z,8.57
2022-11-23T17:19:31.191Z,8.56
2022-11-23T17:22:01.963Z,8.55
2022-11-23T17:24:32.681Z,8.51
2022-11-23T17:27:03.267Z,8.44
2022-11-23T17:29:37.731Z,8.33
2022-11-23T17:32:13.994Z,8.19
2022-11-23T17:34:44.552Z,8.04
2022-11-23T17:37:22.360Z,7.87
2022-11-23T17:39:53.151Z,7.69
2022-11-23T17:42:23.827Z,7.54
2022-11-23T17:44:54.376Z,7.41
2022-11-23T17:47:29.030Z,7.30
2022-11-23T17:50:00.091Z,7.20
2022-11-23T17:52:31.565Z,7.10
2022-11-23T17:55:02.560Z,7.02
2022-11-23T17:57:33.095Z,6.93
2022-11-23T18:00:04.122Z,6.85
2022-11-23T18:02:42.470Z,6.78
2022-11-23T18:05:21.537Z,6.72
2022-11-23T18:07:52.926Z,6.65
2022-11-23T18:10:23.818Z,6.61
2022-11-23T18:12:54.530Z,6.55
2022-11-23T18:15:24.908Z,6.50
2022-11-23T18:17:57.904Z,6.46
2022-11-23T18:20:32.353Z,6.43
2022-11-23T18:23:02.873Z,6.40
2022-11-23T18:25:33.411Z,6.37
2022-11-23T18:28:03.950Z,6.35
2022-11-23T18:30:34.621Z,6.32
2022-11-23T18:33:05.101Z,6.31
2022-11-23T18:35:38.118Z,6.29
2022-11-23T18:38:09.268Z,6.28
2022-11-23T18:40:39.873Z,6.28
2022-11-23T18:43:10.370Z,6.27
2022-11-23T18:45:40.964Z,6.26
2022-11-23T18:48:11.584Z,6.25
2022-11-23T18:50:43.094Z,6.26
2022-11-23T18:53:14.188Z,6.27
2022-11-23T18:55:47.401Z,6.27
2022-11-23T18:58:18.426Z,6.29
2022-11-23T19:00:49.233Z,6.30
2022-11-23T19:03:19.848Z,6.30
2022-11-23T19:05:50.411Z,6.30
2022-11-23T19:08:21.057Z,6.30
2022-11-23T19:10:51.636Z,6.29
2022-11-23T19:13:22.106Z,6.30
2022-11-23T19:15:52.755Z,6.29
2022-11-23T19:18:23.255Z,6.28
2022-11-23T19:20:54.539Z,6.28
2022-11-23T19:23:29.536Z,6.28
2022-11-23T19:26:04.728Z,6.29
2022-11-23T19:28:35.631Z,6.28
2022-11-23T19:31:14.004Z,6.27
2022-11-23T19:33:46.867Z,6.28
2022-11-23T19:36:19.170Z,6.28
2022-11-23T19:38:49.859Z,6.28
2022-11-23T19:41:26.640Z,6.30
2022-11-23T19:44:02.199Z,6.30
2022-11-23T19:46:33.157Z,6.31
2022-11-23T19:49:04.881Z,6.30
2022-11-23T19:51:36.028Z,6.31
2022-11-23T19:54:09.531Z,6.32
2022-11-23T19:56:40.244Z,6.32
2022-11-23T19:59:10.799Z,6.33
2022-11-23T20:01:41.499Z,6.34
2022-11-23T20:04:13.355Z,6.34
2022-11-23T20:06:44.560Z,6.35
2022-11-23T20:09:19.350Z,6.35
2022-11-23T20:11:51.469Z,6.37
2022-11-23T20:14:22.284Z,6.39
2022-11-23T20:16:52.758Z,6.40
2022-11-23T20:19:23.537Z,6.41
2022-11-23T20:21:54.300Z,6.42
2022-11-23T20:24:24.820Z,6.44
2022-11-23T20:26:55.717Z,6.45
2022-11-23T20:29:26.477Z,6.46
2022-11-23T20:31:56.994Z,6.47
2022-11-23T20:34:27.533Z,6.49
2022-11-23T20:36:59.888Z,6.50
2022-11-23T20:39:30.262Z,6.51
2022-11-23T20:42:01.707Z,6.52
2022-11-23T20:44:33.835Z,6.52
2022-11-23T20:47:04.883Z,6.50
2022-11-23T20:49:35.901Z,6.48
2022-11-23T20:52:06.687Z,6.46
2022-11-23T20:54:37.466Z,6.44
2022-11-23T20:57:08.154Z,6.40
2022-11-23T20:59:38.706Z,6.35
2022-11-23T21:02:11.063Z,6.31
2022-11-23T21:04:41.911Z,6.25
2022-11-23T21:07:12.476Z,6.21
2022-11-23T21:09:44.791Z,6.16
2022-11-23T21:12:32.748Z,6.13
2022-11-23T21:15:03.429Z,6.11
2022-11-23T21:17:34.137Z,6.11
2022-11-23T21:20:04.907Z,6.12
2022-11-23T21:22:36.200Z,6.15
2022-11-23T21:25:07.604Z,6.19
2022-11-23T21:27:36.607Z,6.23
2022-11-23T21:30:08.606Z,6.27
2022-11-23T21:32:39.401Z,6.30
2022-11-23T21:35:11.069Z,6.33
2022-11-23T21:37:41.698Z,6.36
2022-11-23T21:40:13.809Z,6.38
2022-11-23T21:42:45.429Z,6.40
2022-11-23T21:45:17.049Z,6.42
2022-11-23T21:47:48.767Z,6.42
2022-11-23T21:50:19.385Z,6.40
2022-11-23T21:52:49.982Z,6.40
2022-11-23T21:55:20.735Z,6.36
2022-11-23T21:57:51.600Z,6.32
2022-11-23T22:00:28.387Z,6.28
2022-11-23T22:03:01.932Z,6.24
2022-11-23T22:05:32.359Z,6.21
2022-11-23T22:08:28.384Z,6.20
2022-11-23T22:10:54.595Z,6.24
2022-11-23T22:13:25.918Z,6.24
2022-11-23T22:15:56.625Z,6.21
2022-11-23T22:18:27.122Z,6.18
2022-11-23T22:21:03.900Z,6.17
2022-11-23T22:23:34.748Z,6.17
2022-11-23T22:26:06.652Z,6.20
2022-11-23T22:28:38.842Z,6.26
2022-11-23T22:31:11.293Z,6.32
2022-11-23T22:33:42.693Z,6.38
2022-11-23T22:36:13.277Z,6.42
2022-11-23T22:38:45.510Z,6.45
2022-11-23T22:41:17.684Z,6.46
2022-11-23T22:43:48.472Z,6.46
2022-11-23T22:46:20.986Z,6.46
2022-11-23T22:48:52.612Z,6.46
2022-11-23T22:51:24.389Z,6.47
2022-11-23T22:53:57.242Z,6.50
2022-11-23T22:56:32.644Z,6.55
2022-11-23T22:59:03.251Z,6.59
2022-11-23T23:01:33.867Z,6.61
2022-11-23T23:04:04.874Z,6.64
2022-11-23T23:06:35.841Z,6.64
2022-11-23T23:09:07.663Z,6.63
2022-11-23T23:11:38.987Z,6.63
2022-11-23T23:14:08.264Z,6.62
2022-11-23T23:16:38.777Z,6.61
2022-11-23T23:19:09.425Z,6.58
2022-11-23T23:21:39.944Z,6.56
2022-11-23T23:24:12.072Z,6.55
2022-11-23T23:26:42.520Z,6.56
2022-11-23T23:29:13.210Z,6.57
2022-11-23T23:31:43.703Z,6.58
2022-11-23T23:34:14.243Z,6.60
2022-11-23T23:36:44.885Z,6.62
2022-11-23T23:39:15.453Z,6.65
2022-11-23T23:41:45.891Z,6.68
2022-11-23T23:44:16.593Z,6.71
2022-11-23T23:46:47.535Z,6.75
2022-11-23T23:49:18.484Z,6.78
2022-11-23T23:51:51.605Z,6.81
2022-11-23T23:54:22.351Z,6.84
2022-11-23T23:56:52.853Z,6.86
2022-11-23T23:59:23.545Z,6.91
